Time;durP1;ratioP1;P1;durP2;ratioP2;P2;SDS_P1;SDS_P2;PMS_P1;PMS_P2;Temp;Humidity;BMP_temperature;BMP_pressure;BME280_temperature;BME280_humidity;BME280_pressure;Samples;Min_cycle;Max_cycle;Signal;HPM_P1;HPM_P2
2021/04/16 04:17:36;;;;;;;10.90;5.80;;;;;;;-2.41;85.38;99594.97;4917289;23;20052;-71
2021/04/16 04:20:07;;;;;;;8.63;5.82;;;;;;;-2.28;84.34;99595.50;4917228;29;20563;-71
2021/04/16 04:22:32;;;;;;;6.25;5.40;;;;;;;-2.42;84.70;99597.41;4917413;29;20020;-71
2021/04/16 04:24:58;;;;;;;8.68;5.80;;;;;;;-2.41;84.44;99589.88;4917381;29;20115;-71
2021/04/16 04:27:23;;;;;;;9.65;6.13;;;;;;;-2.34;83.99;99596.97;4917205;29;20037;-72
2021/04/16 04:29:48;;;;;;;7.97;5.35;;;;;;;-2.46;84.24;99591.34;4917479;29;20366;-71
2021/04/16 04:32:14;;;;;;;9.60;5.40;;;;;;;-2.50;84.19;99597.06;4917020;29;20390;-72
2021/04/16 04:34:40;;;;;;;8.07;5.63;;;;;;;-2.39;84.04;99593.34;4917184;29;20032;-72
2021/04/16 04:37:07;;;;;;;9.73;5.57;;;;;;;-2.13;83.74;99586.94;4916900;29;20025;-72
2021/04/16 04:39:36;;;;;;;10.85;6.13;;;;;;;-2.21;83.62;99590.81;4869199;29;20043;-72
2021/04/16 04:42:03;;;;;;;8.38;5.90;;;;;;;-2.30;83.64;99589.50;4935807;29;20023;-72
2021/04/16 04:44:28;;;;;;;9.63;6.40;;;;;;;-2.13;85.21;99596.22;4935880;29;20063;-72
2021/04/16 04:46:54;;;;;;;8.48;6.03;;;;;;;-1.90;85.72;99594.72;4935833;29;20055;-72
2021/04/16 04:49:20;;;;;;;9.07;6.53;;;;;;;-1.98;83.57;99604.53;4935914;29;20428;-73
2021/04/16 04:51:47;;;;;;;13.13;6.50;;;;;;;-1.95;82.61;99604.66;4935563;29;20082;-70
2021/04/16 04:54:12;;;;;;;8.35;5.70;;;;;;;-2.06;82.58;99603.31;4935662;29;20043;-70
2021/04/16 04:56:38;;;;;;;12.32;6.10;;;;;;;-2.27;83.02;99600.69;4934232;29;20027;-71
2021/04/16 04:59:04;;;;;;;13.18;6.78;;;;;;;-2.29;83.26;99598.84;4934364;29;20484;-70
2021/04/16 05:01:30;;;;;;;10.23;6.18;;;;;;;-2.25;83.17;99603.28;4935584;29;20032;-71
2021/04/16 05:03:55;;;;;;;14.40;6.75;;;;;;;-2.19;83.00;99608.63;4935585;29;20023;-71
2021/04/16 05:06:20;;;;;;;13.95;5.78;;;;;;;-2.19;82.84;99601.00;4935396;29;20080;-71
2021/04/16 05:08:46;;;;;;;8.57;5.93;;;;;;;-2.20;82.78;99602.69;4935307;29;20059;-71
2021/04/16 05:11:11;;;;;;;11.77;6.88;;;;;;;-2.01;82.63;99599.31;4935259;29;20028;-71
2021/04/16 05:13:37;;;;;;;10.93;7.32;;;;;;;-1.90;82.42;99603.19;4935276;29;20086;-71
2021/04/16 05:16:03;;;;;;;9.68;5.95;;;;;;;-1.63;83.30;99607.78;4935442;29;20043;-71
2021/04/16 05:18:28;;;;;;;12.85;7.43;;;;;;;-1.77;81.55;99607.16;4934920;29;20507;-71
2021/04/16 05:20:54;;;;;;;71.40;17.48;;;;;;;-1.83;81.70;99605.22;4935162;29;20481;-71
2021/04/16 05:23:19;;;;;;;38.55;12.77;;;;;;;-1.71;81.06;99609.09;4935168;29;20020;-71
2021/04/16 05:25:45;;;;;;;17.23;8.75;;;;;;;-1.60;80.84;99610.44;4934938;29;20051;-71
2021/04/16 05:28:10;;;;;;;10.45;6.47;;;;;;;-1.42;81.18;99611.22;4935073;29;20126;-71
2021/04/16 05:30:36;;;;;;;11.60;6.80;;;;;;;-1.18;79.63;99620.69;4934979;29;20027;-69
2021/04/16 05:33:01;;;;;;;20.40;7.22;;;;;;;-0.62;80.38;99604.34;4934877;29;20036;-70
2021/04/16 05:35:26;;;;;;;17.13;7.55;;;;;;;-0.51;77.19;99608.19;4934988;29;20046;-70
2021/04/16 05:37:56;;;;;;;11.50;7.10;;;;;;;-0.53;76.33;99604.72;4934835;29;20489;-70
2021/04/16 05:40:21;;;;;;;13.98;6.57;;;;;;;-0.53;76.61;99599.63;4934817;29;20027;-70
2021/04/16 05:42:47;;;;;;;12.00;6.85;;;;;;;-0.36;76.81;99601.13;4934806;29;20110;-70
2021/04/16 05:45:13;;;;;;;8.15;6.00;;;;;;;-0.11;76.25;99595.28;4934819;29;20155;-70
2021/04/16 05:47:38;;;;;;;18.75;7.03;;;;;;;-0.01;75.97;99606.69;4934844;29;20054;-70
2021/04/16 05:50:05;;;;;;;12.35;7.03;;;;;;;0.38;73.60;99603.88;4934705;29;20032;-70
2021/04/16 05:52:30;;;;;;;11.55;7.30;;;;;;;-0.01;74.43;99604.16;4935183;29;20390;-70
2021/04/16 05:54:56;;;;;;;13.30;6.90;;;;;;;0.14;74.46;99607.25;4934717;29;20036;-70
2021/04/16 05:57:21;;;;;;;12.18;7.72;;;;;;;-0.01;74.51;99607.56;4934840;29;20035;-70
2021/04/16 05:59:46;;;;;;;13.75;7.10;;;;;;;-0.15;74.82;99612.94;4934487;29;20027;-70
2021/04/16 06:02:32;;;;;;;11.68;7.18;;;;;;;0.31;74.08;99609.56;4934835;29;20024;-70
2021/04/16 06:04:59;;;;;;;10.32;6.05;;;;;;;0.01;74.35;99615.28;4919048;29;20373;-70
2021/04/16 06:07:26;;;;;;;11.13;6.10;;;;;;;0.02;74.94;99626.34;4919363;29;20039;-70
2021/04/16 06:09:52;;;;;;;12.18;6.32;;;;;;;-0.12;75.16;99629.22;4926568;29;20019;-70
2021/04/16 06:12:19;;;;;;;9.93;6.43;;;;;;;-0.12;75.14;99623.25;4926535;29;20027;-70
2021/04/16 06:14:44;;;;;;;10.63;6.60;;;;;;;-0.01;75.08;99622.84;4934154;29;20028;-70
2021/04/16 06:17:14;;;;;;;12.40;6.00;;;;;;;0.18;74.53;99618.44;4934249;29;20501;-70
2021/04/16 06:19:41;;;;;;;9.38;5.80;;;;;;;0.99;72.38;99613.66;4933102;29;20032;-71
2021/04/16 06:22:06;;;;;;;12.73;6.13;;;;;;;0.91;71.86;99609.97;4934148;29;20051;-70
2021/04/16 06:24:31;;;;;;;10.77;6.13;;;;;;;1.33;71.17;99613.06;4934182;29;20027;-70
2021/04/16 06:26:57;;;;;;;8.68;6.10;;;;;;;1.72;70.38;99605.78;4934240;29;20106;-70
2021/04/16 06:29:22;;;;;;;11.00;5.65;;;;;;;1.86;68.84;99598.56;4934542;29;20114;-70
2021/04/16 06:31:48;;;;;;;10.60;5.80;;;;;;;2.02;68.91;99598.16;4936965;29;20047;-70
2021/04/16 06:34:13;;;;;;;11.93;6.18;;;;;;;2.59;67.39;99589.53;4937940;29;20028;-68
2021/04/16 06:36:39;;;;;;;8.93;5.43;;;;;;;2.88;65.36;99587.75;4937675;29;20389;-68
2021/04/16 06:39:05;;;;;;;9.05;5.55;;;;;;;2.96;65.63;99593.94;4937891;29;20028;-68
2021/04/16 06:41:32;;;;;;;9.25;5.78;;;;;;;3.27;64.85;99587.88;4937141;29;20051;-68
2021/04/16 06:44:15;;;;;;;15.13;5.57;;;;;;;3.54;63.82;99584.25;4937419;29;20024;-68
2021/04/16 06:46:44;;;;;;;8.73;5.60;;;;;;;2.57;65.84;99592.06;4937631;29;20035;-68
2021/04/16 06:49:14;;;;;;;11.73;5.50;;;;;;;2.86;64.97;99591.13;4937704;29;20036;-68
2021/04/16 06:52:00;;;;;;;11.35;5.60;;;;;;;2.44;66.95;99594.25;4937118;29;20773;-68
2021/04/16 06:54:46;;;;;;;13.82;6.53;;;;;;;2.65;66.54;99594.81;4936652;29;20036;-68
2021/04/16 06:57:34;;;;;;;6.03;5.25;;;;;;;2.46;67.37;99596.00;4937235;29;20062;-68
2021/04/16 07:00:09;;;;;;;11.68;5.90;;;;;;;2.08;69.55;99588.94;4937448;29;20432;-68
2021/04/16 07:02:39;;;;;;;9.52;6.55;;;;;;;2.32;69.26;99592.19;4937376;29;20055;-68
2021/04/16 07:05:20;;;;;;;15.65;9.02;;;;;;;2.42;69.80;99590.75;4936787;29;20032;-68
2021/04/16 07:07:48;;;;;;;15.00;7.75;;;;;;;2.28;69.61;99598.06;4937019;29;20027;-68
2021/04/16 07:10:21;;;;;;;10.63;7.43;;;;;;;2.27;69.87;99598.88;4937027;29;20036;-68
2021/04/16 07:12:47;;;;;;;10.23;6.30;;;;;;;2.13;70.68;99598.50;4937530;29;20028;-68
2021/04/16 07:15:35;;;;;;;12.23;6.18;;;;;;;1.95;70.77;99598.81;4936930;29;20051;-68
2021/04/16 07:18:03;;;;;;;7.55;5.70;;;;;;;1.91;71.43;99596.13;4936199;29;20028;-68
2021/04/16 07:20:28;;;;;;;11.45;6.25;;;;;;;1.96;71.18;99599.69;4936773;29;20087;-68
2021/04/16 07:22:55;;;;;;;14.52;6.18;;;;;;;2.07;70.79;99593.19;4937288;29;20469;-68
2021/04/16 07:25:39;;;;;;;7.97;5.60;;;;;;;2.16;71.64;99603.69;4936796;29;20032;-68
2021/04/16 07:28:08;;;;;;;8.70;6.03;;;;;;;2.26;70.91;99602.25;4936497;29;20048;-68
2021/04/16 07:30:40;;;;;;;14.40;6.25;;;;;;;2.41;70.70;99601.81;4936187;29;20400;-68
2021/04/16 07:33:44;;;;;;;11.13;5.95;;;;;;;2.53;70.19;99602.16;4937059;29;20023;-68
2021/04/16 07:36:29;;;;;;;7.15;5.25;;;;;;;2.31;70.45;99606.69;4936251;29;20050;-68
2021/04/16 07:38:59;;;;;;;7.60;5.22;;;;;;;2.63;70.39;99596.47;4936828;29;20505;-68
2021/04/16 07:41:28;;;;;;;6.70;5.45;;;;;;;2.82;70.31;99597.84;4935310;29;20038;-67
2021/04/16 07:43:56;;;;;;;6.80;4.95;;;;;;;3.15;69.22;99592.72;4936578;29;20036;-68
2021/04/16 07:46:27;;;;;;;7.10;5.13;;;;;;;3.41;68.93;99595.03;4936494;29;20110;-68
2021/04/16 07:49:12;;;;;;;5.70;5.10;;;;;;;3.25;68.92;99589.53;4936671;29;20035;-68
2021/04/16 07:51:40;;;;;;;7.55;5.15;;;;;;;3.41;68.20;99589.91;4935470;29;20031;-68
2021/04/16 07:54:13;;;;;;;10.00;5.07;;;;;;;3.25;69.03;99596.38;4936393;29;20428;-69
2021/04/16 07:56:39;;;;;;;6.57;4.80;;;;;;;3.81;68.31;99597.66;4936338;29;20524;-69
2021/04/16 07:59:13;;;;;;;5.32;4.80;;;;;;;4.20;66.63;99591.66;4936472;29;20042;-70
2021/04/16 08:01:43;;;;;;;5.32;4.82;;;;;;;4.02;66.49;99593.84;4936251;29;20055;-69
2021/04/16 08:04:34;;;;;;;6.55;4.70;;;;;;;4.13;66.38;99592.38;4935220;29;20106;-70
2021/04/16 08:07:26;;;;;;;5.82;4.90;;;;;;;4.23;66.43;99586.59;4936089;29;20063;-70
2021/04/16 08:09:51;;;;;;;6.95;5.55;;;;;;;3.89;67.39;99594.41;4936119;29;20024;-71
2021/04/16 08:12:22;;;;;;;8.77;5.20;;;;;;;3.85;68.34;99589.22;4936041;29;20449;-69
2021/04/16 08:14:47;;;;;;;7.35;5.53;;;;;;;3.83;67.91;99601.13;4935534;29;20484;-71
2021/04/16 08:17:27;;;;;;;6.78;5.65;;;;;;;3.21;69.75;99602.22;4935560;29;20083;-70
2021/04/16 08:19:53;;;;;;;8.38;5.70;;;;;;;3.44;70.46;99597.69;4935809;29;20036;-69
2021/04/16 08:22:47;;;;;;;7.80;5.10;;;;;;;4.11;67.74;99594.91;4935883;29;20112;-69
2021/04/16 08:25:16;;;;;;;9.63;6.28;;;;;;;4.21;67.34;99608.78;4931228;29;20087;-69
2021/04/16 08:27:53;;;;;;;7.30;5.20;;;;;;;4.35;66.87;99606.50;4934928;29;20107;-69
2021/04/16 08:30:29;;;;;;;5.90;5.03;;;;;;;4.51;66.94;99612.81;4935596;29;20082;-70
2021/04/16 08:32:54;;;;;;;6.07;5.47;;;;;;;4.66;65.20;99602.84;4935849;29;20034;-71
2021/04/16 08:35:26;;;;;;;8.15;5.78;;;;;;;4.52;66.15;99609.41;4935545;29;20493;-69
2021/04/16 08:37:56;;;;;;;8.85;5.95;;;;;;;5.00;65.84;99606.88;4935329;29;20020;-69
2021/04/16 08:40:33;;;;;;;14.63;5.13;;;;;;;4.51;65.97;99617.94;4934758;29;20032;-70
2021/04/16 08:43:00;;;;;;;6.38;5.07;;;;;;;4.76;65.82;99607.31;4935734;29;20023;-70
2021/04/16 08:45:31;;;;;;;8.95;4.88;;;;;;;4.90;64.82;99608.44;4935304;29;20115;-70
2021/04/16 08:48:06;;;;;;;6.22;5.38;;;;;;;5.23;63.56;99602.16;4935626;29;20111;-70
2021/04/16 08:50:36;;;;;;;5.97;4.95;;;;;;;5.35;63.60;99601.47;4934508;29;20059;-70
2021/04/16 08:53:03;;;;;;;7.25;6.25;;;;;;;5.48;62.84;99599.97;4934681;29;20043;-68
2021/04/16 08:55:34;;;;;;;7.13;5.63;;;;;;;5.40;63.12;99595.56;4935374;29;20501;-69
2021/04/16 08:58:05;;;;;;;7.65;5.78;;;;;;;5.09;63.47;99598.47;4935203;29;20035;-68
2021/04/16 09:00:33;;;;;;;6.53;5.05;;;;;;;4.93;64.39;99602.47;4935245;29;20028;-68
2021/04/16 09:03:00;;;;;;;11.88;5.07;;;;;;;5.32;63.03;99597.16;4934215;29;20102;-68
2021/04/16 09:05:32;;;;;;;6.55;5.30;;;;;;;5.57;63.02;99594.97;4935272;29;20047;-68
2021/04/16 09:08:06;;;;;;;5.95;4.70;;;;;;;4.87;64.60;99592.94;4934980;29;20504;-68
2021/04/16 09:10:31;;;;;;;4.93;4.53;;;;;;;5.48;63.06;99594.84;4934983;29;20035;-68
2021/04/16 09:13:02;;;;;;;8.20;5.93;;;;;;;5.81;62.57;99597.06;4934535;29;20038;-68
2021/04/16 09:15:34;;;;;;;8.88;5.85;;;;;;;5.81;62.60;99595.34;4934478;29;20034;-68
2021/04/16 09:17:59;;;;;;;6.07;4.78;;;;;;;5.27;63.28;99596.22;4934985;29;20023;-68
2021/04/16 09:20:47;;;;;;;6.05;5.10;;;;;;;5.77;61.27;99591.00;4934814;29;20732;-68
2021/04/16 09:23:39;;;;;;;11.25;6.55;;;;;;;6.59;61.13;99595.50;4934635;29;20044;-68
2021/04/16 09:26:08;;;;;;;6.93;4.45;;;;;;;7.22;57.38;99590.09;4909396;29;20123;-68
2021/04/16 09:28:43;;;;;;;4.97;4.50;;;;;;;8.04;54.78;99588.09;4915862;29;20204;-68
2021/04/16 09:31:26;;;;;;;5.32;4.50;;;;;;;11.80;45.50;99567.38;4915772;29;20071;-68
2021/04/16 09:34:19;;;;;;;4.00;3.47;;;;;;;13.24;41.27;99554.25;4915664;29;20089;-69
2021/04/16 09:37:14;;;;;;;6.25;3.88;;;;;;;14.84;37.58;99555.50;4912114;29;20036;-69
2021/04/16 09:39:42;;;;;;;4.88;3.85;;;;;;;15.25;36.17;99558.91;4882808;29;20036;-69
2021/04/16 09:42:46;;;;;;;5.35;3.78;;;;;;;12.98;39.00;99567.66;4898141;29;20031;-68
2021/04/16 09:45:34;;;;;;;4.38;3.97;;;;;;;13.66;38.60;99570.06;4885859;29;20036;-69
2021/04/16 09:48:05;;;;;;;7.03;3.95;;;;;;;12.75;40.33;99570.59;4896236;29;20102;-68
2021/04/16 09:50:42;;;;;;;6.63;3.42;;;;;;;10.15;45.69;99584.00;4896251;29;20033;-68
2021/04/16 09:53:10;;;;;;;4.60;3.50;;;;;;;9.17;48.37;99575.53;4896659;29;20024;-68
2021/04/16 09:56:04;;;;;;;4.93;4.47;;;;;;;8.55;49.89;99581.44;4896611;29;20120;-68
2021/04/16 09:58:29;;;;;;;4.45;4.05;;;;;;;7.45;53.76;99587.72;4878086;29;20061;-69
2021/04/16 10:00:54;;;;;;;8.25;5.78;;;;;;;7.67;53.67;99587.88;4876843;29;20554;-68
2021/04/16 10:03:38;;;;;;;7.13;5.35;;;;;;;7.42;54.33;99579.97;4878503;29;20547;-68
2021/04/16 10:06:32;;;;;;;5.30;4.63;;;;;;;6.26;57.43;99586.53;4881951;29;20056;-68
2021/04/16 10:09:07;;;;;;;8.85;4.50;;;;;;;5.58;59.63;99586.41;4881876;29;20033;-68
2021/04/16 10:11:32;;;;;;;5.72;4.53;;;;;;;5.55;59.31;99586.38;4830062;29;20056;-68
2021/04/16 10:14:21;;;;;;;4.90;3.97;;;;;;;5.69;59.00;99582.28;4881473;29;20033;-68
2021/04/16 10:17:05;;;;;;;5.32;4.63;;;;;;;5.87;58.81;99585.13;4881666;29;20036;-68
2021/04/16 10:19:37;;;;;;;4.95;4.45;;;;;;;5.31;59.18;99585.13;4881648;29;20717;-68
2021/04/16 10:22:11;;;;;;;7.03;4.88;;;;;;;5.70;58.97;99578.88;4881474;29;20033;-68
2021/04/16 10:42:53;;;;;;;4.03;3.60;;;;;;;9.11;48.64;99544.50;4956731;28;20026;-68
2021/04/16 10:53:08;;;;;;;4.53;4.10;;;;;;;8.20;50.34;99544.28;4933019;29;20055;-72
2021/04/16 12:39:53;;;;;;;8.68;3.13;;;;;;;6.48;54.73;99545.59;4972782;28;20069;-72
2021/04/16 12:42:19;;;;;;;4.65;3.25;;;;;;;6.63;53.33;99541.47;4972974;28;20109;-71
2021/04/16 12:44:53;;;;;;;8.98;4.60;;;;;;;6.82;53.01;99533.94;4971973;28;20030;-72
2021/04/16 12:47:24;;;;;;;4.60;3.47;;;;;;;6.48;54.03;99535.28;4922310;28;20047;-70
2021/04/16 12:49:50;;;;;;;3.38;3.08;;;;;;;6.56;53.38;99523.38;4972778;28;20532;-71
2021/04/16 12:52:17;;;;;;;4.28;3.05;;;;;;;6.62;53.29;99518.28;4972828;28;20031;-71
2021/04/16 12:54:48;;;;;;;5.53;3.63;;;;;;;7.15;53.27;99523.03;4972166;28;20143;-71
2021/04/16 12:57:20;;;;;;;4.85;3.13;;;;;;;7.07;51.44;99522.13;4972780;28;20038;-72
2021/04/16 12:59:46;;;;;;;5.25;3.03;;;;;;;6.71;51.07;99523.50;4972635;28;20034;-71
2021/04/16 13:02:21;;;;;;;3.95;3.08;;;;;;;7.15;52.32;99520.44;4972133;28;20026;-70
2021/04/16 13:04:48;;;;;;;2.92;2.63;;;;;;;7.22;50.22;99527.41;4972803;28;20502;-69
2021/04/16 13:07:13;;;;;;;4.95;2.63;;;;;;;6.77;51.35;99517.53;4930363;28;20202;-69
2021/04/16 13:09:38;;;;;;;5.75;2.75;;;;;;;7.05;49.89;99521.22;4918346;28;20069;-73
2021/04/16 13:12:04;;;;;;;2.60;2.40;;;;;;;7.35;50.12;99516.31;4972791;28;20053;-72
2021/04/16 13:14:30;;;;;;;5.47;4.25;;;;;;;7.56;49.65;99513.00;4924432;28;20507;-69
2021/04/16 13:16:55;;;;;;;4.10;2.33;;;;;;;7.28;49.18;99509.38;4971873;28;20105;-69
2021/04/16 13:19:33;;;;;;;3.60;2.33;;;;;;;7.77;47.18;99511.41;4935503;28;20077;-71
2021/04/16 13:22:08;;;;;;;9.02;6.55;;;;;;;8.02;48.28;99502.91;4937676;28;20161;-70
2021/04/16 13:24:34;;;;;;;3.25;2.20;;;;;;;8.66;45.06;99502.28;4923412;28;20097;-70
2021/04/16 13:27:02;;;;;;;3.13;2.83;;;;;;;8.86;45.42;99497.97;4972314;28;20487;-71
2021/04/16 13:29:29;;;;;;;2.67;2.28;;;;;;;8.43;47.00;99500.50;4970285;28;20030;-69
2021/04/16 13:31:55;;;;;;;2.65;2.45;;;;;;;7.66;48.76;99506.19;4852821;28;21356;-70
2021/04/16 13:34:20;;;;;;;4.25;2.50;;;;;;;7.55;49.00;99505.28;4947980;28;20043;-71
2021/04/16 13:36:46;;;;;;;4.03;3.50;;;;;;;7.71;49.50;99504.50;4987092;28;20026;-71
2021/04/16 13:39:12;;;;;;;3.35;2.75;;;;;;;8.14;48.62;99487.47;4970214;28;20061;-71
2021/04/16 13:41:37;;;;;;;2.60;2.40;;;;;;;7.88;47.90;99484.81;4969782;28;20027;-70
2021/04/16 13:44:04;;;;;;;7.28;6.30;;;;;;;7.16;50.89;99492.13;4971933;28;20034;-69
2021/04/16 13:46:32;;;;;;;2.97;2.78;;;;;;;7.83;47.95;99481.34;4972012;28;20059;-69
2021/04/16 13:48:59;;;;;;;3.40;2.50;;;;;;;7.55;48.75;99482.94;4972222;28;20077;-73
2021/04/16 13:51:25;;;;;;;3.17;2.50;;;;;;;8.02;47.42;99476.25;4971730;28;20034;-70
2021/04/16 13:53:51;;;;;;;5.80;2.75;;;;;;;7.90;48.15;99477.94;4970940;28;20033;-72
2021/04/16 13:56:17;;;;;;;2.45;2.25;;;;;;;7.92;47.90;99480.50;4970643;28;20062;-70
2021/04/16 13:58:43;;;;;;;2.63;2.40;;;;;;;7.29;48.72;99475.03;4971783;28;20115;-70
2021/04/16 14:01:10;;;;;;;2.70;2.40;;;;;;;7.14;48.61;99477.50;4971766;28;20034;-68
2021/04/16 14:03:40;;;;;;;4.80;2.42;;;;;;;7.68;47.80;99471.81;4971732;28;20037;-73
2021/04/16 14:06:12;;;;;;;5.03;2.67;;;;;;;7.35;49.08;99481.94;4969536;28;20076;-74
2021/04/16 14:08:40;;;;;;;3.10;2.55;;;;;;;7.08;49.24;99480.03;4924156;28;20389;-69
2021/04/16 14:11:08;;;;;;;3.45;2.92;;;;;;;7.37;48.99;99469.94;4970308;28;20105;-69
2021/04/16 14:13:35;;;;;;;2.80;2.55;;;;;;;7.61;48.34;99476.94;4970678;28;20023;-72
2021/04/16 14:16:04;;;;;;;2.70;2.42;;;;;;;7.39;47.58;99471.66;4971725;28;20022;-72
2021/04/16 14:18:38;;;;;;;2.25;2.15;;;;;;;7.34;48.44;99473.34;4972026;28;20030;-70
2021/04/16 14:21:10;;;;;;;2.28;2.08;;;;;;;7.33;47.71;99474.19;4971597;28;20384;-70
2021/04/16 14:23:35;;;;;;;11.13;9.10;;;;;;;7.57;48.10;99467.47;4971936;28;20098;-73
2021/04/16 14:26:01;;;;;;;4.28;3.13;;;;;;;6.86;49.02;99460.97;4971441;28;20065;-74
2021/04/16 14:28:27;;;;;;;2.70;2.50;;;;;;;7.51;48.46;99462.28;4970857;28;20039;-73
2021/04/16 14:30:55;;;;;;;2.63;2.42;;;;;;;7.92;47.57;99455.56;4986368;28;20638;-74
2021/04/16 14:33:26;;;;;;;3.83;2.50;;;;;;;7.88;46.89;99456.44;4971542;28;20031;-74
2021/04/16 14:35:51;;;;;;;2.65;2.45;;;;;;;7.88;47.39;99453.84;4971698;28;20027;-74
2021/04/16 14:38:17;;;;;;;4.75;4.32;;;;;;;7.40;49.95;99455.34;4971716;28;20497;-71
2021/04/16 14:40:42;;;;;;;5.97;3.30;;;;;;;6.87;50.11;99458.44;4970936;28;20030;-70
2021/04/16 14:43:09;;;;;;;3.33;2.83;;;;;;;6.99;50.20;99459.34;4971505;28;20030;-73
2021/04/16 14:45:48;;;;;;;4.95;2.95;;;;;;;7.16;49.89;99455.19;4971423;28;20027;-69
2021/04/16 14:48:15;;;;;;;6.80;4.55;;;;;;;7.41;49.13;99461.38;4971863;28;20105;-69
2021/04/16 14:50:41;;;;;;;6.22;3.97;;;;;;;7.30;47.43;99458.72;4972259;28;20018;-72
2021/04/16 14:53:23;;;;;;;4.95;3.15;;;;;;;7.42;47.22;99453.63;4973964;28;20034;-72
2021/04/16 14:55:49;;;;;;;6.70;3.90;;;;;;;6.89;48.77;99451.56;4975181;28;20037;-70
2021/04/16 14:58:23;;;;;;;4.20;2.90;;;;;;;7.22;48.77;99452.66;4923478;28;20039;-74
2021/04/16 15:00:48;;;;;;;3.08;2.47;;;;;;;7.52;47.91;99453.69;4974704;28;20110;-71
2021/04/16 15:03:13;;;;;;;5.60;3.58;;;;;;;7.31;48.71;99449.28;4975080;28;20025;-71
2021/04/16 15:05:39;;;;;;;3.92;2.40;;;;;;;7.18;48.99;99458.63;4975151;28;20034;-73
2021/04/16 15:08:17;;;;;;;3.03;2.67;;;;;;;6.86;50.63;99446.38;4974867;28;20026;-72
2021/04/16 15:10:47;;;;;;;2.60;2.40;;;;;;;6.84;50.67;99450.66;4968169;28;20030;-72
2021/04/16 15:13:15;;;;;;;;;;;;;;;6.85;50.39;99451.53;4968464;28;20033;-72
2021/04/16 15:15:46;;;;;;;8.90;6.40;;;;;;;6.41;52.05;99455.44;4969844;28;19965;-71
2021/04/16 15:18:12;;;;;;;3.03;2.70;;;;;;;6.54;51.70;99453.84;4920643;28;20087;-72
2021/04/16 15:20:40;;;;;;;2.80;2.60;;;;;;;6.55;51.96;99459.84;4970329;28;21020;-72
2021/04/16 15:23:10;;;;;;;5.90;2.70;;;;;;;6.34;52.45;99458.81;4968485;28;20026;-70
2021/04/16 15:25:38;;;;;;;4.05;3.75;;;;;;;6.31;53.18;99458.78;4972283;28;20038;-70
2021/04/16 15:28:08;;;;;;;4.88;3.42;;;;;;;6.23;53.07;99460.38;4972652;28;20050;-70
2021/04/16 15:30:37;;;;;;;;;;;;;;;5.83;52.92;99467.63;4950162;28;20487;-70
2021/04/16 15:33:19;;;;;;;3.15;2.85;;;;;;;6.04;53.41;99466.19;4843405;28;19971;-70
2021/04/16 15:47:04;;;;;;;10.35;5.50;;;;;;;6.08;55.58;99462.81;4822643;28;20087;-72
2021/04/16 15:49:30;;;;;;;3.20;2.90;;;;;;;6.16;53.79;99458.63;4867483;28;20062;-74
2021/04/16 15:51:56;;;;;;;8.07;5.93;;;;;;;5.96;53.59;99462.69;4826369;28;20138;-73
2021/04/16 15:54:22;;;;;;;3.70;3.30;;;;;;;5.96;53.53;99462.69;4925263;28;20069;-72
2021/04/16 15:56:50;;;;;;;4.65;4.00;;;;;;;5.95;53.55;99455.78;4971728;28;20065;-72
2021/04/16 15:59:34;;;;;;;3.65;3.00;;;;;;;5.92;53.69;99457.50;4981204;28;20092;-69
2021/04/16 16:02:05;;;;;;;3.90;3.42;;;;;;;5.83;53.92;99452.22;4972959;28;20446;-70
2021/04/16 16:04:30;;;;;;;4.75;3.10;;;;;;;6.16;53.38;99450.91;4973354;28;20547;-71
2021/04/16 16:06:56;;;;;;;3.13;2.83;;;;;;;5.88;53.82;99453.13;4972084;28;20036;-68
2021/04/16 16:09:21;;;;;;;3.60;3.30;;;;;;;5.96;54.34;99452.41;4973116;28;21471;-72
2021/04/16 16:11:52;;;;;;;4.38;3.45;;;;;;;6.04;54.48;99450.75;4973274;28;20055;-72
2021/04/16 16:14:27;;;;;;;7.05;6.05;;;;;;;6.09;54.87;99461.94;4973526;28;20042;-72
2021/04/16 16:16:53;;;;;;;7.15;4.68;;;;;;;6.17;54.78;99453.47;4973779;28;20030;-71
2021/04/16 16:19:18;;;;;;;4.70;3.97;;;;;;;6.17;54.80;99447.47;4926534;28;20127;-70
2021/04/16 16:21:44;;;;;;;5.85;3.80;;;;;;;6.17;55.19;99442.31;4973615;28;20038;-72
2021/04/16 16:24:10;;;;;;;5.03;4.15;;;;;;;5.85;56.20;99455.69;4973433;28;20026;-72
2021/04/16 16:26:39;;;;;;;5.80;4.15;;;;;;;5.81;57.90;99460.75;4973678;28;20032;-72
2021/04/16 16:29:11;;;;;;;4.18;3.72;;;;;;;5.71;58.68;99467.50;4973493;28;20727;-72
2021/04/16 16:31:37;;;;;;;5.53;4.05;;;;;;;5.87;58.84;99468.53;4973153;28;20165;-72
2021/04/16 16:34:03;;;;;;;13.00;5.30;;;;;;;5.23;60.23;99467.69;4973677;28;20557;-72
2021/04/16 16:36:28;;;;;;;7.10;4.18;;;;;;;5.45;60.51;99468.84;4973266;28;20053;-71
2021/04/16 16:38:54;;;;;;;9.10;4.68;;;;;;;5.45;60.85;99471.41;4973262;28;20118;-73
2021/04/16 16:41:20;;;;;;;5.07;4.15;;;;;;;5.43;60.43;99470.56;4973191;28;20038;-73
2021/04/16 16:43:50;;;;;;;4.75;4.30;;;;;;;5.29;61.08;99473.78;4973148;28;20026;-73
2021/04/16 16:46:22;;;;;;;4.28;3.03;;;;;;;5.51;60.42;99474.97;4973353;28;20033;-74
2021/04/16 16:48:48;;;;;;;6.35;4.57;;;;;;;5.57;61.09;99479.31;4973240;28;20407;-70
2021/04/16 16:51:17;;;;;;;5.20;4.13;;;;;;;5.44;60.78;99470.56;4972992;28;20026;-71
2021/04/16 16:53:43;;;;;;;4.53;4.00;;;;;;;5.36;61.79;99480.72;4972954;28;20027;-71
2021/04/16 16:56:14;;;;;;;4.03;3.35;;;;;;;5.35;61.50;99470.44;4972963;28;20041;-68
2021/04/16 16:58:41;;;;;;;3.38;3.08;;;;;;;5.26;62.38;99478.00;4972868;28;20411;-73
2021/04/16 17:01:18;;;;;;;7.63;5.22;;;;;;;5.26;62.05;99475.44;4972987;28;20113;-71
2021/04/16 17:03:43;;;;;;;4.25;3.60;;;;;;;5.27;61.42;99475.47;4973261;28;20077;-69
2021/04/16 17:06:09;;;;;;;3.33;3.03;;;;;;;5.31;60.94;99487.50;4972627;28;20034;-69
2021/04/16 17:08:34;;;;;;;13.57;6.60;;;;;;;5.24;61.27;99475.41;4972752;28;20069;-69
2021/04/16 17:11:02;;;;;;;11.93;8.07;;;;;;;5.17;61.42;99473.59;4972770;28;20632;-69
2021/04/16 17:13:28;;;;;;;13.07;9.02;;;;;;;5.14;61.03;99473.56;4972028;28;20030;-69
2021/04/16 17:15:59;;;;;;;14.32;12.13;;;;;;;5.10;61.42;99487.19;4972565;28;20057;-69
2021/04/16 17:18:27;;;;;;;6.05;5.45;;;;;;;5.01;61.93;99477.63;4970494;28;20031;-69
2021/04/16 17:20:55;;;;;;;15.90;6.95;;;;;;;5.23;61.42;99483.13;4970996;28;20031;-69
2021/04/16 17:23:21;;;;;;;5.85;4.97;;;;;;;5.22;61.85;99484.81;4972488;28;20033;-69
2021/04/16 17:25:47;;;;;;;5.10;4.40;;;;;;;5.08;62.26;99486.31;4971763;28;20034;-69
2021/04/16 17:28:20;;;;;;;4.03;3.63;;;;;;;5.06;62.38;99490.56;4972557;28;21228;-69
2021/04/16 17:30:45;;;;;;;6.90;5.40;;;;;;;5.10;62.06;99487.19;4972122;28;20034;-69
2021/04/16 17:33:15;;;;;;;4.93;3.47;;;;;;;5.04;62.38;99492.25;4972373;28;20529;-69
2021/04/16 17:35:42;;;;;;;10.43;4.97;;;;;;;4.97;62.87;99486.13;4987331;28;20034;-68
2021/04/16 17:38:09;;;;;;;5.00;3.90;;;;;;;4.90;62.81;99495.44;4971491;28;20035;-74
2021/04/16 17:40:34;;;;;;;4.78;4.28;;;;;;;4.98;63.10;99497.25;4972210;28;20026;-74
2021/04/16 17:43:07;;;;;;;4.40;3.83;;;;;;;4.99;62.61;99488.75;4971405;28;20033;-74
2021/04/16 17:45:34;;;;;;;6.47;5.88;;;;;;;5.09;62.71;99488.03;4972223;28;20034;-73
2021/04/16 17:48:01;;;;;;;4.60;3.53;;;;;;;5.11;61.99;99494.06;4972090;28;20042;-74
2021/04/16 17:50:41;;;;;;;6.03;4.70;;;;;;;4.90;62.63;99500.59;4971899;28;20027;-70
2021/04/16 17:53:07;;;;;;;7.45;3.70;;;;;;;4.89;63.14;99508.28;4923983;28;20215;-74
2021/04/16 17:55:33;;;;;;;6.05;3.70;;;;;;;4.82;63.40;99499.59;4986891;28;20249;-75
2021/04/16 17:57:59;;;;;;;6.05;2.92;;;;;;;4.82;63.62;99497.00;4972144;28;20026;-69
2021/04/16 18:00:27;;;;;;;3.13;2.92;;;;;;;4.77;63.77;99503.78;4971075;28;21279;-69
2021/04/16 18:02:53;;;;;;;5.75;3.53;;;;;;;4.77;63.43;99508.91;4972171;28;20101;-72
2021/04/16 18:05:20;;;;;;;3.35;3.05;;;;;;;4.71;63.83;99508.81;4971993;28;20109;-69
2021/04/16 18:07:51;;;;;;;5.75;3.55;;;;;;;4.71;63.82;99506.25;4972090;28;20102;-72
2021/04/16 18:10:38;;;;;;;6.10;3.63;;;;;;;4.74;64.15;99508.88;4971654;28;20037;-72
2021/04/16 18:13:05;;;;;;;3.67;3.05;;;;;;;4.71;64.04;99513.09;4972990;28;20156;-72
2021/04/16 18:15:31;;;;;;;4.63;4.18;;;;;;;4.73;64.29;99511.41;4971728;28;20081;-71
2021/04/16 18:18:00;;;;;;;10.10;3.75;;;;;;;4.71;64.11;99513.94;4971951;28;20039;-71
2021/04/16 18:20:26;;;;;;;3.97;3.40;;;;;;;4.70;64.46;99507.09;4970022;28;20084;-71
2021/04/16 18:22:58;;;;;;;5.13;3.55;;;;;;;4.72;64.31;99514.81;4971183;28;20441;-71
2021/04/16 18:25:28;;;;;;;7.15;3.28;;;;;;;4.72;64.29;99515.66;4970078;28;20066;-71
2021/04/16 18:27:54;;;;;;;9.48;7.95;;;;;;;4.76;64.83;99514.88;4975713;28;20505;-72
2021/04/16 18:30:38;;;;;;;10.27;9.27;;;;;;;4.74;64.47;99521.72;4975541;28;20038;-71